Latest Weather Observations for Norfolk Island

IDN60801

Issued at 4:02 am EST Wednesday 2 September 2015 (issued every 30 minutes, with the page automatically refreshed every 10 minutes)

About weather observations | Map of weather stations | Latest weather observations for NSW | Other Formats
Station Details ID: 200288 Name: NORFOLK ISLAND AERO Lat: -29.04 Lon: 167.94 Height: 111.73 m
Data from the previous 72 hours. | See also: Recent months at Norfolk Island
Date/Time
EST
Temp
°C
App
Temp
°C
Dew
Point
Rel
Hum
%
Delta-T
°C
Wind Press
QNH
hPa
Press
MSL
hPa
Rain
since 9 am
mm
Dir
 
Spd
km/h
Gust
km/h
Spd
kts
Gust
kts
02/04:00am 17.3 12.3 11.0 66 3.4 W 28 39 15 21 1014.1 - 0.0
02/03:30am 17.0 11.8 10.2 64 3.6 WNW 28 39 15 21 1013.9 - 0.0
02/03:00am 17.3 12.3 10.8 65 3.5 W 28 37 15 20 1013.8 - 0.0
02/02:30am 17.4 11.6 10.7 65 3.6 W 32 41 17 22 1013.8 - 0.0
02/02:00am 17.4 12.7 10.5 64 3.7 W 26 37 14 20 1013.8 - 0.0
02/01:30am 17.4 12.4 10.9 65 3.5 W 28 39 15 21 1014.1 1013.9 0.0
02/01:00am 17.5 11.9 10.0 61 4.0 W 30 39 16 21 1014.2 - 0.0
02/12:30am 17.5 12.7 10.4 63 3.8 W 26 35 14 19 1014.3 - 0.0
02/12:00am 17.4 12.4 9.4 59 4.2 W 26 37 14 20 1014.2 - 0.0
 
Date/Time
EST
Temp
°C
App
Temp
°C
Dew
Point
Rel
Hum
%
Delta-T
°C
Wind Press
QNH
hPa
Press
MSL
hPa
Rain
since 9 am
mm
Dir
 
Spd
km/h
Gust
km/h
Spd
kts
Gust
kts
01/11:30pm 17.3 13.3 10.4 64 3.7 WNW 22 32 12 17 1014.4 - 0.0
01/11:00pm 17.4 13.6 11.1 66 3.4 W 22 32 12 17 1014.6 - 0.0
01/10:30pm 17.4 12.6 10.3 63 3.8 W 26 37 14 20 1014.4 1014.2 0.0
01/10:00pm 17.4 13.2 11.1 66 3.4 W 24 33 13 18 1014.4 - 0.0
01/09:30pm 17.1 13.9 11.8 71 2.9 WNW 20 32 11 17 1014.4 - 0.0
01/09:00pm 16.0 11.7 10.8 71 2.8 WNW 24 35 13 19 1014.6 - 0.0
01/08:30pm 17.5 14.2 11.5 68 3.3 W 20 26 11 14 1014.3 - 0.0
01/08:00pm 17.4 14.3 11.6 69 3.2 WNW 19 30 10 16 1014.2 - 0.0
01/07:30pm 17.5 13.7 11.3 67 3.4 W 22 30 12 16 1013.9 1013.8 0.0
01/07:00pm 17.6 14.6 11.8 69 3.2 WNW 19 33 10 18 1013.8 - 0.0
01/06:30pm 17.2 15.4 12.1 72 2.8 WNW 13 20 7 11 1013.7 - 0.0
01/06:00pm 17.1 14.4 11.8 71 2.9 WNW 17 26 9 14 1013.5 - 0.0
01/05:30pm 17.3 14.0 11.6 69 3.1 W 20 30 11 16 1013.2 - 0.0
01/05:00pm 17.6 14.3 11.6 68 3.3 W 20 32 11 17 1013.0 - 0.0
01/04:30pm 17.6 13.4 11.2 66 3.5 WNW 24 33 13 18 1012.8 1012.7 0.0
01/04:00pm 18.2 14.3 10.8 62 4.0 W 22 33 12 18 1012.7 - 0.0
01/03:30pm 18.5 14.0 10.1 58 4.5 W 24 32 13 17 1012.5 - 0.0
01/03:00pm 19.1 14.2 10.0 55 4.9 W 26 35 14 19 1012.3 - 0.0
01/02:30pm 18.7 14.4 10.6 59 4.4 W 24 35 13 19 1012.3 - 0.0
01/02:00pm 19.3 14.7 9.8 54 5.1 W 24 32 13 17 1012.4 - 0.0
01/01:30pm 19.2 13.8 9.6 53 5.1 W 28 35 15 19 1012.6 1012.5 0.0
01/01:00pm 19.2 15.1 11.6 61 4.2 W 24 33 13 18 1012.8 - 0.0
01/12:30pm 19.7 15.4 10.7 56 4.9 W 24 32 13 17 1012.8 - 0.0
01/12:00pm 19.7 15.1 9.6 52 5.4 WNW 24 32 13 17 1013.0 - 0.0
01/11:30am 19.5 15.4 10.0 54 5.1 W 22 33 12 18 1013.3 - 0.0
01/11:00am 19.7 15.5 11.2 58 4.7 WNW 24 32 13 17 1013.5 - 0.0
01/10:30am 19.6 15.6 10.6 56 4.9 W 22 30 12 16 1013.7 1013.6 0.0
01/10:00am 19.5 15.6 10.7 56 4.8 WNW 22 32 12 17 1013.9 - 0.0
01/09:30am 19.4 15.4 10.3 55 4.9 W 22 28 12 15 1014.1 - 0.0
01/09:00am 19.1 15.1 10.4 57 4.7 W 22 30 12 16 1014.1 - 0.0
01/08:30am 18.9 15.1 9.9 56 4.8 W 20 30 11 16 1013.9 - 0.0
01/08:00am 18.5 14.7 9.9 57 4.6 W 20 30 11 16 1013.9 - 0.0
01/07:30am 18.3 14.2 10.1 59 4.4 W 22 32 12 17 1013.7 1013.6 21.2
01/07:00am 17.8 13.9 9.5 58 4.4 W 20 30 11 16 1013.5 - 21.2
01/06:30am 17.4 14.0 9.0 58 4.4 W 17 24 9 13 1013.3 - 21.2
01/06:00am 16.9 13.5 9.0 59 4.1 W 17 26 9 14 1013.0 - 21.2
01/05:30am 16.5 13.1 9.0 61 3.9 W 17 28 9 15 1012.8 - 21.2
01/05:00am 16.2 12.9 9.7 65 3.4 W 17 26 9 14 1012.4 - 21.2
01/04:30am 16.5 13.4 10.3 67 3.3 W 17 26 9 14 1012.0 1011.9 21.2
01/04:00am 16.5 14.0 11.1 70 2.9 W 15 22 8 12 1011.7 - 21.2
01/03:30am 16.3 13.8 10.9 70 2.9 W 15 22 8 12 1011.4 - 21.2
01/03:00am 16.2 13.5 11.8 75 2.4 W 17 24 9 13 1011.1 - 21.2
01/02:30am 16.6 14.0 11.9 74 2.6 W 17 22 9 12 1011.1 - 21.2
01/02:00am 16.4 14.2 12.0 75 2.4 WSW 15 22 8 12 1011.1 - 21.2
01/01:30am 16.4 14.1 11.6 73 2.6 WSW 15 24 8 13 1011.2 1011.1 21.2
01/01:00am 16.4 14.1 11.8 74 2.5 WSW 15 20 8 11 1011.2 - 21.2
01/12:30am 16.7 14.5 12.2 75 2.5 WSW 15 20 8 11 1011.4 - 21.2
01/12:00am 16.6 13.6 12.5 77 2.3 WSW 20 28 11 15 1011.4 - 21.2
 
Date/Time
EST
Temp
°C
App
Temp
°C
Dew
Point
Rel
Hum
%
Delta-T
°C
Wind Press
QNH
hPa
Press
MSL
hPa
Rain
since 9 am
mm
Dir
 
Spd
km/h
Gust
km/h
Spd
kts
Gust
kts
31/11:30pm 16.7 14.1 12.0 74 2.6 WSW 17 24 9 13 1011.4 - 21.2
31/11:00pm 16.8 13.7 12.1 74 2.6 WSW 20 26 11 14 1011.4 - 21.2
31/10:30pm 16.8 13.9 12.3 75 2.5 WSW 19 28 10 15 1011.4 1011.3 21.2
31/10:00pm 16.9 14.1 12.6 76 2.4 WSW 19 28 10 15 1011.2 - 21.2
31/09:30pm 17.3 15.1 13.4 78 2.2 WSW 17 24 9 13 1011.1 - 21.2
31/09:00pm 17.2 15.0 13.3 78 2.2 SW 17 22 9 12 1011.0 - 21.2
31/08:30pm 17.3 14.4 13.0 76 2.4 WSW 20 28 11 15 1010.8 - 21.2
31/08:00pm 17.2 14.9 12.9 76 2.4 WSW 17 28 9 15 1010.5 - 21.2
31/07:30pm 17.0 14.3 13.5 80 2.0 SW 20 30 11 16 1010.3 1010.2 21.2
31/07:00pm 17.3 14.1 13.0 76 2.4 WSW 22 28 12 15 1010.1 - 21.2
31/06:30pm 17.3 14.4 13.0 76 2.4 WSW 20 28 11 15 1010.0 - 21.2
31/06:00pm 17.3 14.8 13.6 79 2.1 WSW 19 32 10 17 1009.7 - 21.2
31/05:30pm 17.6 14.4 14.3 81 1.9 WSW 24 33 13 18 1009.0 - 21.2
31/05:00pm 17.7 14.7 14.8 83 1.7 WSW 24 35 13 19 1008.4 - 21.2
31/04:30pm 17.9 14.1 14.6 81 1.9 W 28 37 15 20 1008.2 1008.0 21.2
31/04:00pm 18.0 15.0 14.9 82 1.8 W 24 39 13 21 1008.1 - 21.2
31/03:30pm 18.2 14.7 15.5 84 1.6 W 28 41 15 22 1007.8 - 21.2
31/03:17pm 18.2 14.2 15.3 83 1.7 W 30 39 16 21 1007.5 - 21.2
31/03:00pm 18.0 14.5 15.5 85 1.5 W 28 39 15 21 1007.3 - 21.0
31/02:34pm 17.8 14.3 15.6 87 1.3 W 28 41 15 22 1007.2 - 21.0
31/02:30pm 17.8 14.3 15.6 87 1.3 W 28 41 15 22 1007.2 - 21.0
31/02:00pm 17.5 15.4 16.2 92 0.8 WNW 22 32 12 17 1007.6 - 21.0
31/01:30pm 16.8 15.9 15.8 94 0.6 WNW 15 24 8 13 1007.7 1007.5 21.0
31/01:24pm 16.7 15.4 15.9 95 0.5 WNW 17 24 9 13 1007.7 - 21.0
31/01:00pm 17.1 14.7 16.3 95 0.5 NW 24 44 13 24 1008.4 - 20.4
31/12:30pm 17.7 15.9 16.0 90 1.0 NW 20 35 11 19 1008.7 - 15.6
31/12:00pm 17.8 15.7 16.1 90 1.0 NW 22 39 12 21 1008.9 - 15.0
31/11:30am 17.6 15.7 15.7 89 1.1 NW 20 30 11 16 1008.9 - 15.0
31/11:00am 17.4 15.0 16.4 94 0.6 NW 24 43 13 23 1009.5 - 14.8
31/10:54am 17.4 15.0 16.4 94 0.6 NW 24 35 13 19 1009.3 - 14.8
31/10:30am 17.3 14.2 16.5 95 0.5 NW 28 46 15 25 1009.8 1009.6 14.6
31/10:00am 17.9 15.0 17.1 95 0.5 NW 28 48 15 26 1010.4 - 9.2
31/09:48am 18.1 15.1 16.8 92 0.8 NW 28 56 15 30 1010.6 - 5.8
31/09:30am 18.5 17.3 17.4 93 0.7 NW 20 35 11 19 1010.7 - 4.4
31/09:03am 18.0 15.0 16.7 92 0.8 NW 28 44 15 24 1011.0 - 3.6
31/09:00am 18.0 14.8 16.3 90 1.0 NW 28 44 15 24 1011.0 - 3.4
31/08:34am 18.5 17.3 17.4 93 0.7 NW 20 35 11 19 1011.2 - 2.4
31/08:30am 18.4 17.3 17.4 94 0.6 NW 19 35 10 19 1011.2 - 2.4
31/08:06am 17.8 16.6 17.0 95 0.5 NNW 19 33 10 18 1011.5 - 2.0
31/08:00am 17.8 15.6 17.0 95 0.5 NNW 24 43 13 23 1011.4 - 1.6
31/07:32am 17.5 16.7 16.2 92 0.8 N 15 - 8 - - - -
31/07:00am 17.7 15.0 16.7 94 0.6 N 26 46 14 25 1011.8 - 17.4
31/06:54am 17.6 15.7 16.6 94 0.6 N 22 41 12 22 1011.7 - 17.0
31/06:39am 18.2 16.4 17.0 93 0.7 N 22 43 12 23 1011.7 - 12.8
31/06:30am 18.3 16.1 17.0 92 0.8 N 24 48 13 26 1011.7 - 11.6
31/06:00am 17.9 15.6 16.6 92 0.8 NNW 24 37 13 20 1011.9 - 8.6
31/05:53am 17.9 16.0 16.6 92 0.8 N 22 39 12 21 1011.9 - 7.8
31/05:40am 18.3 15.1 16.3 88 1.2 N 28 52 15 28 1011.7 - 7.6
31/05:30am 18.3 16.2 16.1 87 1.3 N 22 39 12 21 1011.7 - 7.6
31/05:07am 18.1 15.7 16.3 89 1.1 N 24 33 13 18 1011.7 - 7.6
31/05:06am 18.1 15.7 16.3 89 1.1 N 24 39 13 21 1011.7 - 7.6
31/05:00am 18.0 14.7 16.0 88 1.2 N 28 43 15 23 1011.6 - 7.6
31/04:53am 17.6 13.9 16.1 91 0.9 N 30 46 16 25 1011.6 - 7.6
31/04:49am 17.7 14.3 15.8 89 1.1 N 28 46 15 25 1011.6 - 7.6
31/04:38am 17.8 14.5 16.1 90 1.0 N 28 48 15 26 1011.6 - 7.6
31/04:30am 17.8 14.6 16.3 91 0.9 N 28 43 15 23 1011.6 1011.5 7.6
31/04:15am 17.5 15.4 16.2 92 0.8 N 22 41 12 22 1011.8 - 7.6
31/04:06am 17.5 15.0 16.2 92 0.8 N 24 48 13 26 1011.8 - 7.4
31/04:00am 17.3 14.4 16.0 92 0.8 N 26 44 14 24 1011.9 - 7.4
31/03:59am 17.2 14.3 16.0 93 0.7 N 26 44 14 24 1011.9 - 7.4
31/03:36am 17.2 16.0 16.0 93 0.7 N 17 28 9 15 1012.1 - 6.0
31/03:34am 17.3 15.7 16.1 93 0.7 N 19 28 10 15 1012.1 - 5.8
31/03:30am 17.2 14.7 16.2 94 0.6 N 24 41 13 22 1012.0 - 5.6
31/03:16am 17.2 15.5 16.2 94 0.6 N 20 30 11 16 1012.1 - 5.4
31/03:15am 17.3 15.5 16.1 93 0.7 N 20 35 11 19 1012.1 - 5.4
31/03:11am 17.4 15.3 16.1 92 0.8 N 22 39 12 21 1012.2 - 5.0
31/03:04am 17.4 14.8 15.9 91 0.9 N 24 41 13 22 1012.2 - 4.2
31/03:03am 17.4 14.8 15.9 91 0.9 N 24 41 13 22 1012.2 - 4.2
31/03:00am 17.3 14.7 16.0 92 0.8 N 24 41 13 22 1012.2 - 4.2
31/02:55am 17.3 15.4 15.8 91 0.9 N 20 43 11 23 1012.2 - 4.2
31/02:38am 17.1 14.2 16.1 94 0.6 N 26 39 14 21 1012.4 - 4.2
31/02:30am 17.4 14.7 15.7 90 1.0 N 24 39 13 21 1012.5 - 2.6
31/02:29am 17.4 15.1 15.7 90 1.0 N 22 35 12 19 1012.5 - 2.6
31/02:00am 17.5 14.6 15.1 86 1.4 N 24 43 13 23 1012.9 - 1.6
31/01:53am 17.6 15.6 15.6 88 1.2 N 20 33 11 18 1013.0 - 1.6
31/01:48am 17.6 14.1 15.4 87 1.3 N 28 50 15 27 1013.0 - 1.6
31/01:43am 17.7 14.2 15.5 87 1.3 N 28 50 15 27 1013.0 - 1.6
31/01:30am 17.8 15.2 15.9 89 1.1 N 24 41 13 22 1013.4 1013.3 1.4
31/01:13am 17.9 14.7 15.2 84 1.6 N 26 43 14 23 1013.7 - 1.2
31/01:00am 17.7 14.8 15.1 85 1.5 N 24 39 13 21 1013.9 - 1.2
31/12:30am 17.3 13.7 15.2 87 1.2 N 28 43 15 23 1014.6 - 1.2
31/12:04am 17.1 13.9 15.4 90 1.0 N 26 44 14 24 1015.0 - 1.2
31/12:00am 17.2 14.4 15.3 88 1.1 N 24 37 13 20 1015.1 - 1.2
 
Date/Time
EST
Temp
°C
App
Temp
°C
Dew
Point
Rel
Hum
%
Delta-T
°C
Wind Press
QNH
hPa
Press
MSL
hPa
Rain
since 9 am
mm
Dir
 
Spd
km/h
Gust
km/h
Spd
kts
Gust
kts
30/11:52pm 17.0 15.0 15.5 91 0.9 N 20 30 11 16 1015.2 - 1.2
30/11:30pm 17.1 13.5 15.2 88 1.1 N 28 37 15 20 1015.5 - 1.0
30/11:29pm 17.2 13.5 15.1 87 1.2 N 28 50 15 27 1015.4 - 1.0
30/11:26pm 17.5 14.0 15.5 88 1.2 N 28 52 15 28 1015.4 - 1.0
30/11:17pm 18.5 14.8 14.9 79 2.1 N 28 52 15 28 1015.3 - 1.0
30/11:00pm 18.3 14.5 14.7 79 2.1 N 28 41 15 22 1015.5 - 1.0
30/10:42pm 18.4 14.0 14.2 76 2.4 N 30 50 16 27 1015.4 - 1.0
30/10:30pm 18.4 14.9 14.6 78 2.2 N 26 43 14 23 1015.7 1015.5 1.0
30/10:14pm 18.4 14.7 15.0 80 2.0 N 28 46 15 25 1016.0 - 1.0
30/10:00pm 18.3 14.9 14.7 79 2.1 N 26 39 14 21 1016.1 - 1.0
30/09:30pm 18.2 14.4 14.6 79 2.1 N 28 39 15 21 1016.3 - 0.8
30/09:00pm 17.4 14.8 15.0 86 1.4 N 22 35 12 19 1016.7 - 0.8
30/08:30pm 17.5 14.5 14.7 83 1.6 N 24 35 13 19 1016.8 - 0.8
30/08:00pm 18.1 15.3 14.3 78 2.2 N 22 35 12 19 1017.1 - 0.8
30/07:30pm 17.4 15.1 14.6 83 1.6 N 20 37 11 20 1017.3 1017.1 0.8
30/07:00pm 17.0 14.9 15.3 90 1.0 N 20 41 11 22 1017.3 - 0.8
30/06:30pm 17.9 15.4 14.1 78 2.2 N 20 32 11 17 1017.2 - 0.8
30/06:00pm 17.2 15.0 14.8 86 1.4 N 20 30 11 16 1017.1 - 0.8
30/05:25pm 17.2 14.2 14.8 86 1.4 N 24 37 13 20 1017.2 - 0.0
30/05:00pm 18.6 15.9 13.5 72 2.9 N 20 35 11 19 1017.0 - 0.0
30/04:30pm 18.7 15.8 13.0 69 3.2 N 20 32 11 17 1017.0 1016.8 0.0
30/04:00pm 18.6 16.1 13.5 72 2.9 N 19 28 10 15 1016.9 - 0.0
30/03:30pm 18.7 16.2 14.0 74 2.7 N 20 39 11 21 1017.1 - 0.0
30/03:00pm 19.3 17.1 15.0 76 2.5 NNE 20 32 11 17 1017.1 - 0.0
30/02:30pm 19.5 17.4 15.1 76 2.6 N 20 37 11 20 1017.4 - 0.0
30/02:00pm 19.6 16.6 14.8 74 2.8 N 24 33 13 18 1017.9 - 0.0
30/01:30pm 20.4 18.7 14.8 70 3.3 N 17 33 9 18 1018.1 1018.0 0.0
30/01:00pm 20.2 17.8 14.4 69 3.4 N 20 32 11 17 1018.4 - 0.0
30/12:30pm 20.0 16.8 14.3 69 3.3 N 24 32 13 17 1018.8 - 0.0
30/12:00pm 20.0 19.0 15.6 76 2.6 N 15 22 8 12 1019.1 - 0.0
30/11:30am 20.0 17.3 14.5 70 3.2 N 22 33 12 18 1019.7 - 0.0
30/11:00am 20.4 19.1 14.8 70 3.3 N 15 22 8 12 1020.0 - 0.0
30/10:30am 20.1 17.2 14.1 68 3.5 N 22 37 12 20 1020.5 1020.4 0.0
30/10:00am 19.8 15.7 13.9 69 3.4 N 28 39 15 21 1020.9 - 0.0
30/09:30am 20.3 16.7 14.3 68 3.5 N 26 39 14 21 1021.2 - 0.0
30/09:00am 19.7 15.6 13.8 69 3.4 NNE 28 37 15 20 1021.2 - 0.0
30/08:30am 19.2 16.7 14.0 72 3.0 N 20 33 11 18 1021.2 - 0.0
30/08:00am 19.4 17.4 14.0 71 3.1 N 17 28 9 15 1021.3 - 0.0
30/07:30am 19.1 16.6 14.1 73 2.9 N 20 32 11 17 1021.2 1021.1 0.2
30/07:00am 19.0 17.2 14.5 75 2.6 N 17 30 9 16 1021.1 - 0.2
30/06:30am 18.3 16.6 14.7 79 2.1 N 17 32 9 17 1021.0 - 0.2
30/06:00am 18.0 16.2 14.5 80 2.0 N 17 28 9 15 1020.9 - 0.2
30/05:30am 17.6 15.3 14.1 80 2.0 N 19 30 10 16 1020.9 - 0.2
30/05:00am 17.6 16.1 14.1 80 2.0 N 15 20 8 11 1020.4 - 0.2
30/04:30am 17.6 15.9 14.8 84 1.6 N 17 26 9 14 1020.3 1020.2 0.2
30/04:00am 17.3 16.2 14.2 82 1.8 N 13 19 7 10 1020.3 - 0.2
30/03:30am 17.0 16.0 14.6 86 1.4 N 13 20 7 11 1020.1 - 0.2
30/03:24am 16.9 16.4 14.8 87 1.2 N 11 17 6 9 1020.3 - 0.2
30/03:00am 16.5 14.5 14.9 90 0.9 NNE 19 30 10 16 1020.5 - 0.0
30/02:56am 16.7 14.6 14.8 88 1.1 NNE 19 30 10 16 1020.5 - 0.0

Other Formats:

Comma delimited format used in spreadsheet applications
http://www.bom.gov.au/fwo/IDN60801/IDN60801.94996.axf

JavaScript Object Notation format (JSON) in row-major order
http://www.bom.gov.au/fwo/IDN60801/IDN60801.94996.json